Terminal Aerodrome Forecast
Issued by NWS Mt. Holly, NJ

Home | Current Version | Previous Version | Text Only | Print | Product List | Glossary On
Versions: 1 2 3 4 5 6 7 8 9 10 11 12 13 14 15 16 17 18 19 20 21 22 23 24
000
FTUS41 KPHI 291743
TAFILG
TAF
KILG 291743Z 2918/3018 12005KT P6SM SCT120
     FM292000 14007KT P6SM FEW050
     FM300000 17006KT P6SM SCT250
     FM301000 18006KT 4SM BR SCT015 BKN035
     FM301600 20010G17KT P6SM SCT050=

USA.gov is the U.S. government's official web portal to all federal, state and local government web resources and services.